Time;durP1;ratioP1;P1;durP2;ratioP2;P2;SDS_P1;SDS_P2;PMS_P1;PMS_P2;Temp;Humidity;BMP_temperature;BMP_pressure;BME280_temperature;BME280_humidity;BME280_pressure;Samples;Min_cycle;Max_cycle;Signal;HPM_P1;HPM_P2
2021/07/27 00:02:17;;;;;;;6.45;3.78;;;16.60;99.90;;;;;;5036402;28;20025;-73
2021/07/27 00:04:43;;;;;;;8.63;5.00;;;16.60;99.90;;;;;;5053900;28;20025;-74
2021/07/27 00:07:08;;;;;;;7.63;4.65;;;16.60;99.90;;;;;;5028277;28;20507;-73
2021/07/27 00:09:34;;;;;;;4.97;3.75;;;16.70;99.90;;;;;;5053650;28;20047;-73
2021/07/27 00:11:59;;;;;;;8.10;4.63;;;16.70;99.90;;;;;;5053668;28;20103;-73
2021/07/27 00:14:25;;;;;;;9.38;4.32;;;16.60;99.90;;;;;;5054353;28;20079;-73
2021/07/27 00:16:50;;;;;;;6.22;4.43;;;16.60;99.90;;;;;;5035782;28;20480;-73
2021/07/27 00:19:16;;;;;;;5.32;3.92;;;16.50;99.90;;;;;;5054657;28;20455;-74
2021/07/27 00:21:41;;;;;;;7.40;4.45;;;16.60;99.90;;;;;;5053965;28;20546;-73
2021/07/27 00:24:07;;;;;;;7.00;4.35;;;16.50;99.90;;;;;;5053595;28;20037;-73
2021/07/27 00:26:34;;;;;;;4.60;3.63;;;16.50;99.90;;;;;;5035119;28;20052;-73
2021/07/27 00:29:00;;;;;;;8.75;3.88;;;16.50;99.90;;;;;;5053531;28;20021;-73
2021/07/27 00:31:28;;;;;;;10.15;4.35;;;16.50;99.90;;;;;;5053248;28;20031;-73
2021/07/27 00:33:54;;;;;;;5.22;4.22;;;16.50;99.90;;;;;;5052751;28;20024;-73
2021/07/27 00:36:19;;;;;;;6.32;4.38;;;16.50;99.90;;;;;;5053771;28;20036;-73
2021/07/27 00:38:45;;;;;;;6.20;4.47;;;16.40;99.90;;;;;;5053508;28;20499;-73
2021/07/27 00:41:11;;;;;;;5.43;4.53;;;16.40;99.90;;;;;;5035527;28;20021;-73
2021/07/27 00:43:36;;;;;;;7.57;4.47;;;16.50;99.90;;;;;;5053697;28;20025;-73
2021/07/27 00:46:02;;;;;;;6.57;4.72;;;16.40;99.90;;;;;;5035573;28;20025;-73
2021/07/27 00:48:27;;;;;;;9.32;4.85;;;16.50;99.90;;;;;;5053432;28;20028;-72
2021/07/27 00:50:53;;;;;;;6.95;4.93;;;16.60;99.90;;;;;;5053505;28;20025;-72
2021/07/27 00:53:19;;;;;;;7.60;4.30;;;16.70;99.90;;;;;;5052967;28;20025;-72
2021/07/27 00:55:45;;;;;;;5.45;4.53;;;16.60;99.90;;;;;;5053357;28;20477;-72
2021/07/27 00:58:11;;;;;;;5.88;4.35;;;16.60;99.90;;;;;;5053251;28;20108;-72
2021/07/27 01:00:37;;;;;;;5.82;4.78;;;16.40;99.90;;;;;;5035121;28;20074;-72
2021/07/27 01:03:02;;;;;;;6.70;4.75;;;16.50;99.90;;;;;;5053060;28;20032;-72
2021/07/27 01:05:29;;;;;;;11.10;4.95;;;16.40;99.90;;;;;;5052624;28;20033;-72
2021/07/27 01:07:57;;;;;;;7.00;4.25;;;16.40;99.90;;;;;;5035045;28;20013;-72
2021/07/27 01:10:22;;;;;;;4.80;4.20;;;16.30;99.90;;;;;;5052888;28;20412;-74
2021/07/27 01:12:48;;;;;;;5.90;3.63;;;16.30;99.90;;;;;;5052766;28;20036;-73
2021/07/27 01:15:15;;;;;;;6.30;3.80;;;16.20;99.90;;;;;;5052648;28;20436;-72
2021/07/27 01:17:41;;;;;;;7.38;4.20;;;16.20;99.90;;;;;;5052818;28;20393;-72
2021/07/27 01:44:30;;;;;;;6.13;4.05;;;16.50;99.90;;;;;;5052475;28;20097;-73
2021/07/27 01:46:56;;;;;;;6.65;4.35;;;16.50;99.90;;;;;;5052251;28;20476;-72
2021/07/27 01:49:22;;;;;;;5.90;4.75;;;16.40;99.90;;;;;;5052199;28;20017;-72
2021/07/27 01:51:47;;;;;;;9.07;5.28;;;16.30;99.90;;;;;;5052273;28;20384;-72
2021/07/27 01:54:16;;;;;;;12.98;4.78;;;16.30;99.90;;;;;;5051928;28;20096;-72
2021/07/27 01:56:46;;;;;;;5.05;4.60;;;16.20;99.90;;;;;;5051441;28;20127;-72
2021/07/27 01:59:12;;;;;;;8.38;4.93;;;16.20;99.90;;;;;;5059957;28;20033;-71
2021/07/27 02:01:39;;;;;;;6.15;5.50;;;16.20;99.90;;;;;;5075154;28;20100;-72
2021/07/27 02:04:05;;;;;;;6.20;4.68;;;16.20;99.90;;;;;;5069045;28;20084;-72
2021/07/27 02:06:30;;;;;;;6.15;4.63;;;16.20;99.90;;;;;;5036217;28;20056;-72
2021/07/27 02:09:00;;;;;;;5.25;4.65;;;16.10;99.90;;;;;;5051679;28;20025;-72
2021/07/27 02:11:34;;;;;;;6.10;4.32;;;16.20;99.90;;;;;;5051586;28;20154;-72
2021/07/27 02:14:00;;;;;;;5.30;4.38;;;16.20;99.90;;;;;;5051307;28;20106;-72
2021/07/27 02:16:26;;;;;;;5.45;4.32;;;16.20;99.90;;;;;;5033726;28;20024;-72
2021/07/27 02:18:51;;;;;;;14.48;5.15;;;16.20;99.90;;;;;;5051239;28;20033;-72
2021/07/27 02:21:17;;;;;;;6.13;5.10;;;16.20;99.90;;;;;;5051735;28;20033;-72
2021/07/27 02:23:42;;;;;;;13.10;4.82;;;16.20;99.90;;;;;;5053036;28;20020;-72
2021/07/27 02:26:08;;;;;;;7.72;4.50;;;16.20;99.90;;;;;;5052535;28;20419;-72
2021/07/27 02:28:33;;;;;;;7.25;5.10;;;16.20;99.90;;;;;;5033474;28;20025;-72
2021/07/27 02:31:02;;;;;;;4.72;4.28;;;16.20;99.90;;;;;;5051240;28;20123;-72
2021/07/27 02:33:29;;;;;;;4.43;4.00;;;16.30;99.90;;;;;;5032966;28;20029;-72
2021/07/27 02:35:56;;;;;;;5.40;4.32;;;16.30;99.90;;;;;;5050888;28;20044;-73
2021/07/27 02:38:22;;;;;;;4.68;4.20;;;16.40;99.90;;;;;;5051242;28;20384;-72
2021/07/27 02:40:48;;;;;;;10.88;4.90;;;16.40;99.90;;;;;;5051077;28;20070;-72
2021/07/27 02:43:13;;;;;;;6.25;4.65;;;16.40;99.90;;;;;;5050712;28;20029;-72
2021/07/27 02:45:39;;;;;;;20.60;5.85;;;16.30;99.90;;;;;;5051420;28;20162;-72
2021/07/27 02:48:06;;;;;;;7.60;4.70;;;16.30;99.90;;;;;;5050651;28;20028;-72
2021/07/27 02:50:34;;;;;;;5.68;4.55;;;16.30;99.90;;;;;;5033320;28;20075;-72
2021/07/27 02:52:59;;;;;;;6.18;4.63;;;16.20;99.90;;;;;;5051172;28;20028;-72
2021/07/27 02:55:25;;;;;;;5.85;4.60;;;16.30;99.90;;;;;;5050409;28;20032;-72
2021/07/27 02:57:51;;;;;;;6.05;4.63;;;16.30;99.90;;;;;;5054343;28;20053;-71
2021/07/27 03:00:17;;;;;;;6.13;4.57;;;16.30;99.90;;;;;;5037052;28;20036;-72
2021/07/27 03:02:45;;;;;;;5.20;4.70;;;16.30;99.90;;;;;;5054570;28;20581;-72
2021/07/27 03:05:12;;;;;;;7.72;4.32;;;16.20;99.90;;;;;;5054789;28;20116;-72
2021/07/27 03:10:23;;;;;;;6.82;5.47;;;16.10;99.90;;;;;;5055293;28;20033;-72
2021/07/27 03:12:53;;;;;;;5.53;4.72;;;16.20;99.90;;;;;;5056171;28;20029;-72
2021/07/27 03:15:21;;;;;;;8.20;4.65;;;16.20;99.90;;;;;;5038656;28;20064;-72
2021/07/27 03:17:47;;;;;;;5.10;4.40;;;16.30;99.90;;;;;;5055218;28;20033;-72
2021/07/27 03:20:15;;;;;;;9.80;4.95;;;16.40;99.90;;;;;;5055161;28;20036;-73
2021/07/27 03:22:41;;;;;;;7.10;5.05;;;16.40;99.90;;;;;;5036597;28;20032;-72
2021/07/27 03:25:08;;;;;;;10.65;5.20;;;16.30;99.90;;;;;;5054817;28;20104;-72
2021/07/27 03:27:35;;;;;;;6.82;4.90;;;16.40;99.90;;;;;;5054334;28;20028;-73
2021/07/27 03:30:00;;;;;;;6.22;4.72;;;16.40;99.90;;;;;;5053990;28;20112;-72
2021/07/27 03:32:26;;;;;;;8.02;5.13;;;16.40;99.90;;;;;;5054494;28;20056;-72
2021/07/27 03:34:52;;;;;;;6.55;4.70;;;16.40;99.90;;;;;;5054350;28;20024;-72
2021/07/27 03:37:17;;;;;;;6.65;5.20;;;16.50;99.90;;;;;;5054318;28;20104;-72
2021/07/27 03:39:46;;;;;;;7.10;4.85;;;16.50;99.90;;;;;;5054268;28;20017;-72
2021/07/27 03:42:12;;;;;;;5.00;4.50;;;16.50;99.90;;;;;;5054330;28;20059;-73
2021/07/27 03:44:37;;;;;;;6.10;5.50;;;16.50;99.90;;;;;;5053938;28;20465;-73
2021/07/27 03:47:03;;;;;;;10.25;4.93;;;16.60;99.90;;;;;;5031617;28;20528;-73
2021/07/27 03:49:29;;;;;;;6.63;6.00;;;16.60;99.90;;;;;;5049971;28;20028;-73
2021/07/27 03:51:55;;;;;;;8.43;5.13;;;16.60;99.90;;;;;;5054446;28;20052;-73
2021/07/27 03:54:22;;;;;;;6.03;5.38;;;16.60;99.90;;;;;;5054141;28;20397;-72
2021/07/27 03:56:47;;;;;;;7.90;5.88;;;16.60;99.90;;;;;;5054052;28;20060;-73
2021/07/27 03:59:14;;;;;;;6.38;5.10;;;16.60;99.90;;;;;;5054300;28;20496;-73
2021/07/27 04:01:41;;;;;;;10.05;5.80;;;16.60;99.90;;;;;;5053936;28;20392;-73
2021/07/27 04:04:06;;;;;;;8.88;5.18;;;16.60;99.90;;;;;;5053774;28;20031;-73
2021/07/27 04:06:32;;;;;;;5.97;5.15;;;16.70;99.90;;;;;;5053470;28;20033;-72
2021/07/27 04:08:57;;;;;;;7.25;4.93;;;16.90;99.90;;;;;;5052435;28;20035;-72
2021/07/27 04:11:23;;;;;;;5.40;4.90;;;16.80;99.90;;;;;;5078140;22;20116;-77
2021/07/27 04:13:48;;;;;;;8.93;5.63;;;16.90;99.90;;;;;;5014785;28;20033;-76
2021/07/27 04:16:15;;;;;;;7.25;5.03;;;16.90;99.90;;;;;;5014742;28;20468;-76
2021/07/27 04:18:40;;;;;;;7.47;5.03;;;16.80;99.90;;;;;;4997302;28;20037;-76
2021/07/27 04:21:06;;;;;;;9.23;5.00;;;16.80;99.90;;;;;;4999518;28;20120;-77
2021/07/27 04:23:31;;;;;;;5.82;5.10;;;16.90;99.90;;;;;;5023143;28;20106;-76
2021/07/27 04:25:58;;;;;;;9.07;4.65;;;17.10;99.90;;;;;;5033157;28;20033;-76
2021/07/27 04:28:23;;;;;;;4.80;4.30;;;17.20;99.90;;;;;;5034173;28;20056;-76
2021/07/27 04:30:49;;;;;;;5.60;4.72;;;17.40;99.90;;;;;;5015955;28;20473;-77
2021/07/27 04:33:18;;;;;;;6.65;4.88;;;17.40;99.90;;;;;;5034096;28;20043;-76
2021/07/27 04:35:44;;;;;;;11.07;5.07;;;17.30;99.90;;;;;;5017562;28;20026;-77
2021/07/27 04:38:09;;;;;;;6.20;5.00;;;17.20;99.90;;;;;;5014858;28;20045;-76
2021/07/27 04:40:35;;;;;;;6.45;4.38;;;17.40;99.90;;;;;;5014309;28;20536;-75
2021/07/27 04:43:00;;;;;;;9.88;4.57;;;17.50;99.90;;;;;;5009718;28;20044;-76
2021/07/27 04:45:26;;;;;;;8.98;4.78;;;17.50;99.90;;;;;;5018422;28;20045;-76
2021/07/27 04:47:55;;;;;;;7.28;4.93;;;17.60;99.90;;;;;;5019647;28;20026;-77
2021/07/27 04:50:20;;;;;;;7.65;4.50;;;17.60;99.90;;;;;;5008277;28;20021;-77
2021/07/27 04:52:58;;;;;;;8.02;4.50;;;17.60;99.90;;;;;;5021951;28;20385;-77
2021/07/27 04:55:25;;;;;;;8.20;4.78;;;17.50;99.90;;;;;;5013749;28;20420;-77
2021/07/27 04:57:50;;;;;;;5.28;4.78;;;17.60;99.90;;;;;;5029901;28;20113;-77
2021/07/27 05:00:22;;;;;;;7.80;4.20;;;18.00;99.90;;;;;;5019463;28;20609;-77
2021/07/27 05:02:48;;;;;;;9.93;4.78;;;18.20;99.90;;;;;;5016512;28;20026;-77
2021/07/27 05:05:13;;;;;;;10.73;5.25;;;18.70;99.90;;;;;;5016062;28;20482;-76
2021/07/27 05:07:39;;;;;;;6.32;4.10;;;19.10;99.90;;;;;;5033227;28;20532;-76
2021/07/27 05:10:05;;;;;;;9.55;4.35;;;19.80;99.90;;;;;;5015668;28;20493;-76
2021/07/27 05:12:31;;;;;;;9.73;4.07;;;20.70;99.90;;;;;;5013319;28;20026;-77
2021/07/27 05:14:56;;;;;;;8.02;4.15;;;20.70;99.90;;;;;;5013661;28;20029;-75
2021/07/27 05:17:22;;;;;;;5.53;3.75;;;20.30;99.90;;;;;;5004153;28;20481;-76
2021/07/27 05:19:54;;;;;;;8.65;3.83;;;20.40;99.90;;;;;;5013294;28;20025;-77
2021/07/27 05:22:21;;;;;;;7.97;3.42;;;20.50;99.90;;;;;;5013421;28;20464;-75
2021/07/27 05:24:47;;;;;;;11.20;3.97;;;21.00;99.90;;;;;;5013906;28;20026;-77
2021/07/27 05:27:13;;;;;;;4.55;3.35;;;21.60;99.90;;;;;;5012436;28;20026;-76
2021/07/27 05:29:38;;;;;;;7.35;3.72;;;22.30;99.90;;;;;;5013941;28;20359;-77
2021/07/27 05:32:04;;;;;;;4.90;3.38;;;23.50;99.90;;;;;;5013218;28;20022;-77
2021/07/27 05:34:30;;;;;;;6.90;3.08;;;24.20;99.90;;;;;;5014441;28;20018;-77
2021/07/27 05:36:56;;;;;;;14.07;4.88;;;24.20;99.90;;;;;;4997071;28;20402;-78
2021/07/27 05:39:21;;;;;;;7.28;3.10;;;24.30;99.90;;;;;;5015852;28;20120;-77
2021/07/27 05:41:47;;;;;;;6.88;3.35;;;23.20;99.90;;;;;;5023818;28;20029;-77
2021/07/27 05:44:12;;;;;;;4.97;4.00;;;22.60;99.90;;;;;;5028080;28;20033;-77
2021/07/27 05:46:38;;;;;;;4.55;3.78;;;22.50;99.90;;;;;;5013069;28;20026;-77
2021/07/27 05:49:08;;;;;;;4.68;3.22;;;22.50;99.90;;;;;;5032362;28;20017;-77
2021/07/27 05:51:33;;;;;;;5.53;3.83;;;22.00;99.90;;;;;;5013931;28;20049;-77
2021/07/27 05:53:59;;;;;;;11.27;3.70;;;22.70;99.90;;;;;;5016586;28;20026;-77
2021/07/27 05:56:24;;;;;;;8.40;3.20;;;23.80;99.90;;;;;;5013068;28;20449;-78
2021/07/27 05:58:50;;;;;;;3.60;2.95;;;23.80;99.90;;;;;;5013722;28;20144;-76
2021/07/27 06:01:16;;;;;;;9.35;3.75;;;24.30;99.90;;;;;;5028245;28;20025;-76
2021/07/27 06:03:41;;;;;;;5.03;3.20;;;24.20;99.90;;;;;;5037221;28;20036;-77
2021/07/27 06:06:07;;;;;;;4.57;3.38;;;24.10;99.90;;;;;;5031960;28;20557;-77
2021/07/27 06:08:32;;;;;;;10.07;4.38;;;23.80;99.90;;;;;;5015786;28;20437;-77
2021/07/27 06:10:58;;;;;;;3.30;3.00;;;23.40;99.90;;;;;;5012947;28;20030;-77
2021/07/27 06:13:23;;;;;;;5.93;3.80;;;23.30;99.90;;;;;;5018639;28;20029;-77
2021/07/27 06:15:49;;;;;;;3.95;2.97;;;24.40;99.90;;;;;;5014831;28;20393;-76
2021/07/27 06:18:15;;;;;;;6.85;2.92;;;25.30;99.90;;;;;;5012824;28;20462;-77
2021/07/27 06:20:41;;;;;;;4.15;3.63;;;25.30;99.90;;;;;;5014344;28;20029;-77
2021/07/27 06:23:06;;;;;;;4.25;3.30;;;25.30;99.90;;;;;;4994911;28;20033;-76
2021/07/27 06:25:32;;;;;;;5.68;3.38;;;24.80;99.90;;;;;;5012749;28;20037;-77
2021/07/27 06:27:57;;;;;;;5.95;3.28;;;24.30;99.90;;;;;;5012907;28;20389;-77
2021/07/27 06:30:23;;;;;;;3.92;3.40;;;23.70;99.90;;;;;;4995451;28;20026;-77
2021/07/27 06:32:49;;;;;;;7.05;3.50;;;23.00;99.90;;;;;;5031207;28;20378;-77
2021/07/27 06:35:15;;;;;;;6.65;3.78;;;22.40;99.90;;;;;;5032431;28;20064;-78
2021/07/27 06:37:40;;;;;;;6.93;3.88;;;21.90;99.90;;;;;;5031043;28;20109;-77
2021/07/27 06:40:06;;;;;;;5.00;3.50;;;21.90;99.90;;;;;;5020183;28;20131;-77
2021/07/27 06:42:32;;;;;;;5.50;3.17;;;22.30;1.00;;;;;;5013425;28;20034;-76
2021/07/27 06:44:58;;;;;;;6.65;4.40;;;22.50;99.90;;;;;;5022067;28;20025;-76
2021/07/27 06:47:24;;;;;;;9.20;3.45;;;22.30;1.00;;;;;;5026794;28;20032;-75
2021/07/27 06:49:50;;;;;;;6.43;4.15;;;21.90;99.90;;;;;;5042863;28;20033;-76
2021/07/27 06:52:20;;;;;;;6.80;3.72;;;21.90;99.90;;;;;;5029983;28;20026;-76
2021/07/27 06:54:46;;;;;;;5.82;4.15;;;21.90;99.90;;;;;;5040208;28;20066;-75
2021/07/27 06:57:11;;;;;;;10.95;4.18;;;22.10;99.90;;;;;;5038850;28;20080;-77
2021/07/27 06:59:37;;;;;;;6.45;4.88;;;22.00;99.90;;;;;;5041767;28;20028;-77
2021/07/27 07:02:03;;;;;;;9.77;3.72;;;22.10;99.90;;;;;;5036144;28;20045;-76
2021/07/27 07:04:28;;;;;;;7.88;3.80;;;22.10;99.90;;;;;;5015132;28;20037;-76
2021/07/27 07:06:54;;;;;;;5.63;4.10;;;22.30;99.90;;;;;;5014022;28;20061;-77
2021/07/27 07:09:20;;;;;;;15.50;3.95;;;22.40;99.90;;;;;;5013191;28;20026;-77
2021/07/27 07:11:45;;;;;;;5.60;3.53;;;22.40;99.90;;;;;;5012877;28;20545;-76
2021/07/27 07:14:11;;;;;;;5.20;3.72;;;22.60;77.50;;;;;;5013016;28;20041;-77
2021/07/27 07:16:36;;;;;;;5.07;3.22;;;22.60;1.00;;;;;;4999522;28;20066;-77
2021/07/27 07:19:02;;;;;;;8.90;4.00;;;22.70;1.00;;;;;;5015707;28;20029;-75
2021/07/27 07:21:27;;;;;;;4.90;3.65;;;22.60;1.00;;;;;;5032380;28;20036;-77
2021/07/27 07:23:53;;;;;;;3.95;3.58;;;22.50;99.90;;;;;;5029108;28;20496;-76
2021/07/27 07:26:18;;;;;;;7.97;3.88;;;22.60;97.80;;;;;;5025495;28;20030;-76
2021/07/27 07:28:44;;;;;;;6.43;4.25;;;22.50;99.90;;;;;;5007594;28;20034;-77
2021/07/27 07:31:12;;;;;;;6.10;4.15;;;22.30;99.90;;;;;;5019813;28;20075;-77
2021/07/27 07:33:38;;;;;;;6.82;3.90;;;22.60;99.90;;;;;;5015693;28;20022;-76
2021/07/27 07:36:14;;;;;;;16.38;4.63;;;23.20;99.90;;;;;;4996126;28;20030;-77
2021/07/27 07:38:41;;;;;;;6.10;4.43;;;22.90;1.00;;;;;;5014755;28;20092;-78
2021/07/27 07:41:09;;;;;;;5.18;4.03;;;22.60;32.90;;;;;;5026489;28;20533;-77
2021/07/27 07:43:37;;;;;;;6.97;3.65;;;22.60;99.90;;;;;;5018004;28;20040;-79
2021/07/27 07:46:02;;;;;;;12.27;4.10;;;22.50;99.90;;;;;;5035855;28;20044;-76
2021/07/27 07:48:28;;;;;;;5.93;4.47;;;22.70;99.90;;;;;;5016807;28;20030;-77
2021/07/27 07:50:54;;;;;;;4.93;4.00;;;23.00;1.00;;;;;;5034903;28;20021;-76
2021/07/27 07:53:19;;;;;;;12.25;4.35;;;23.00;1.00;;;;;;5028371;28;20082;-77
2021/07/27 07:55:45;;;;;;;5.68;3.67;;;23.20;1.00;;;;;;5015393;28;20034;-76
2021/07/27 07:58:11;;;;;;;6.60;3.90;;;23.30;99.90;;;;;;5022902;28;20033;-77
2021/07/27 08:00:36;;;;;;;5.25;3.97;;;23.30;99.90;;;;;;5026757;28;20030;-77
2021/07/27 08:03:03;;;;;;;5.03;3.80;;;23.50;47.70;;;;;;5024302;28;20041;-77
2021/07/27 08:05:29;;;;;;;6.30;3.47;;;23.70;1.00;;;;;;5023189;28;20034;-76
2021/07/27 08:07:55;;;;;;;4.47;3.63;;;23.60;1.00;;;;;;5016202;28;20524;-77
2021/07/27 08:10:21;;;;;;;7.38;3.45;;;24.00;99.90;;;;;;5025257;28;20030;-78
2021/07/27 08:12:47;;;;;;;5.72;3.97;;;24.20;95.40;;;;;;5015247;28;20060;-77
2021/07/27 08:15:16;;;;;;;7.32;4.18;;;24.20;1.00;;;;;;5014602;28;20030;-77
2021/07/27 08:17:43;;;;;;;6.05;3.42;;;24.10;1.00;;;;;;5022748;28;20026;-76
2021/07/27 08:20:09;;;;;;;5.35;3.88;;;24.00;1.00;;;;;;5015354;28;20040;-77
2021/07/27 08:22:39;;;;;;;4.32;3.60;;;23.60;1.00;;;;;;5021369;28;20084;-76
2021/07/27 08:25:06;;;;;;;4.43;3.58;;;23.50;1.00;;;;;;5024248;28;20056;-77
2021/07/27 08:27:32;;;;;;;4.35;3.47;;;23.60;1.00;;;;;;5019552;28;20188;-78
2021/07/27 08:29:58;;;;;;;7.05;3.90;;;24.00;99.90;;;;;;5018095;28;20426;-77
2021/07/27 08:32:23;;;;;;;4.43;3.63;;;24.00;99.90;;;;;;5016335;28;20030;-77
2021/07/27 08:34:49;;;;;;;6.38;3.70;;;24.10;99.90;;;;;;5031145;28;20033;-79
2021/07/27 08:37:15;;;;;;;4.50;3.53;;;24.20;1.00;;;;;;5019732;28;20056;-77
2021/07/27 08:39:40;;;;;;;4.20;3.80;;;24.30;1.00;;;;;;5017482;28;20200;-76
2021/07/27 08:42:06;;;;;;;4.47;3.65;;;24.50;1.00;;;;;;4996889;28;20030;-77
2021/07/27 08:44:34;;;;;;;8.15;3.70;;;24.40;99.90;;;;;;5032896;28;20435;-76
2021/07/27 08:47:04;;;;;;;4.75;3.90;;;24.70;99.90;;;;;;5030387;28;20033;-77
2021/07/27 08:49:31;;;;;;;4.50;3.63;;;24.80;12.00;;;;;;5005491;28;20022;-76
2021/07/27 08:51:58;;;;;;;3.95;3.55;;;24.80;97.50;;;;;;5027631;28;20108;-78
2021/07/27 08:54:25;;;;;;;5.05;3.60;;;24.60;98.10;;;;;;5026820;28;20501;-78
2021/07/27 08:56:51;;;;;;;4.28;3.55;;;24.20;98.60;;;;;;5025476;28;20021;-76
2021/07/27 08:59:18;;;;;;;5.25;3.97;;;24.40;99.90;;;;;;5006824;28;20030;-77
2021/07/27 09:01:44;;;;;;;4.28;3.88;;;24.30;99.90;;;;;;5014584;28;20057;-79
2021/07/27 09:04:11;;;;;;;10.07;4.72;;;24.00;99.90;;;;;;5031135;28;20033;-77
2021/07/27 09:06:37;;;;;;;4.25;3.60;;;24.20;99.90;;;;;;5005481;28;20130;-77
2021/07/27 09:09:10;;;;;;;4.25;3.88;;;24.50;99.90;;;;;;5020657;28;20450;-78
2021/07/27 09:11:48;;;;;;;4.93;3.88;;;24.70;99.90;;;;;;5023454;28;20160;-78
2021/07/27 09:14:16;;;;;;;4.35;3.95;;;24.90;99.90;;;;;;4998585;28;20036;-77
2021/07/27 09:16:44;;;;;;;5.75;4.10;;;24.80;99.90;;;;;;5031316;28;20036;-76
2021/07/27 09:19:10;;;;;;;5.28;3.95;;;24.80;99.90;;;;;;5007657;28;20033;-76
2021/07/27 09:21:35;;;;;;;14.95;4.30;;;25.00;99.90;;;;;;5011191;28;20055;-77
2021/07/27 09:24:01;;;;;;;5.53;4.93;;;24.90;99.90;;;;;;4996960;28;20402;-77
2021/07/27 09:26:26;;;;;;;6.85;4.55;;;25.10;99.90;;;;;;5021762;28;20029;-78
2021/07/27 09:29:02;;;;;;;7.95;4.13;;;25.10;99.90;;;;;;5015457;28;20025;-78
2021/07/27 09:31:27;;;;;;;5.55;4.00;;;25.30;99.90;;;;;;5005796;28;20065;-76
2021/07/27 09:33:53;;;;;;;4.43;3.75;;;25.40;99.90;;;;;;5034479;28;20032;-75
2021/07/27 09:36:24;;;;;;;4.60;3.95;;;24.90;99.90;;;;;;5030067;28;20104;-75
2021/07/27 09:39:03;;;;;;;7.60;3.80;;;24.60;99.90;;;;;;5039158;28;20051;-77
2021/07/27 09:41:30;;;;;;;5.78;4.47;;;25.10;99.90;;;;;;5035634;28;20048;-78
2021/07/27 09:43:57;;;;;;;6.50;3.95;;;25.00;99.90;;;;;;5040858;28;20125;-76
2021/07/27 09:46:24;;;;;;;7.53;4.15;;;24.90;99.90;;;;;;5032179;28;20088;-76
2021/07/27 09:48:51;;;;;;;5.90;4.22;;;25.20;99.90;;;;;;5047259;28;20487;-77
2021/07/27 09:51:17;;;;;;;4.10;3.70;;;25.10;99.90;;;;;;5025505;28;20026;-77
2021/07/27 09:53:45;;;;;;;7.95;4.18;;;25.10;99.90;;;;;;5017840;28;20060;-77
2021/07/27 09:56:11;;;;;;;5.68;3.88;;;25.10;99.90;;;;;;5012998;28;20053;-78
2021/07/27 09:58:37;;;;;;;5.03;4.20;;;25.00;99.90;;;;;;5019313;28;20044;-78
2021/07/27 10:01:18;;;;;;;7.28;4.22;;;25.40;99.90;;;;;;5018598;28;20034;-76
2021/07/27 10:03:46;;;;;;;;;;;25.40;99.90;;;;;;5022073;28;20030;-75
2021/07/27 10:06:18;;;;;;;5.97;4.28;;;25.30;99.90;;;;;;5012331;28;19924;-75
2021/07/27 10:08:53;;;;;;;5.05;3.55;;;25.30;99.90;;;;;;5015284;28;20026;-76
2021/07/27 10:11:18;;;;;;;5.07;3.97;;;25.60;99.90;;;;;;5024944;28;20022;-76
2021/07/27 10:13:48;;;;;;;5.63;4.70;;;25.80;99.90;;;;;;5039109;22;20049;-72
2021/07/27 10:16:21;;;;;;;4.53;4.10;;;25.60;99.90;;;;;;5017452;28;20369;-72
2021/07/27 10:18:47;;;;;;;3.78;3.42;;;25.70;99.90;;;;;;5014165;28;20107;-72
2021/07/27 10:21:23;;;;;;;9.82;3.80;;;25.20;99.90;;;;;;5013861;28;20079;-72
2021/07/27 10:23:54;;;;;;;8.02;4.97;;;25.50;99.90;;;;;;5012634;28;20508;-72
2021/07/27 10:26:33;;;;;;;5.53;4.53;;;25.40;99.90;;;;;;5012326;28;20117;-72
2021/07/27 10:28:59;;;;;;;6.10;4.18;;;25.60;99.90;;;;;;5006543;28;20052;-73
2021/07/27 10:31:37;;;;;;;5.25;3.47;;;25.80;99.90;;;;;;5031551;28;20037;-71
2021/07/27 10:34:10;;;;;;;6.00;4.32;;;26.00;99.90;;;;;;5028552;28;20068;-73
2021/07/27 10:36:41;;;;;;;5.57;3.97;;;26.20;99.90;;;;;;5030977;28;20033;-72
2021/07/27 10:39:12;;;;;;;4.57;3.55;;;26.20;99.90;;;;;;5008252;28;20061;-73
2021/07/27 10:41:47;;;;;;;;;;;26.50;99.90;;;;;;5021078;28;20125;-72
2021/07/27 10:44:22;;;;;;;5.30;3.88;;;26.90;99.90;;;;;;5016938;28;19909;-73
2021/07/27 10:46:52;;;;;;;4.00;3.55;;;26.40;99.90;;;;;;5029763;28;20029;-73
2021/07/27 10:49:22;;;;;;;4.75;3.38;;;26.30;99.90;;;;;;5024073;28;20030;-73
2021/07/27 10:51:50;;;;;;;5.70;3.58;;;26.40;99.90;;;;;;5013334;28;20037;-72
2021/07/27 10:54:17;;;;;;;6.93;3.75;;;26.60;99.90;;;;;;5033833;28;20120;-72
2021/07/27 10:57:06;;;;;;;6.30;4.15;;;26.80;99.70;;;;;;5018813;28;20025;-71
2021/07/27 10:59:36;;;;;;;6.57;3.67;;;27.00;99.40;;;;;;5025109;28;20025;-73
2021/07/27 11:02:13;;;;;;;5.82;3.67;;;27.30;98.60;;;;;;5024439;28;20160;-73
2021/07/27 11:04:39;;;;;;;3.67;3.38;;;27.00;98.90;;;;;;5022867;28;20026;-72
2021/07/27 11:07:10;;;;;;;3.65;3.35;;;27.00;99.00;;;;;;5018680;28;20030;-73
2021/07/27 11:09:51;;;;;;;3.95;3.65;;;27.00;98.50;;;;;;5016699;28;20109;-73
2021/07/27 11:12:36;;;;;;;4.15;3.83;;;26.90;97.50;;;;;;5019636;28;20029;-72
2021/07/27 11:15:18;;;;;;;3.60;3.30;;;27.20;97.70;;;;;;5024940;28;20124;-73
2021/07/27 11:18:02;;;;;;;4.45;3.30;;;27.20;97.20;;;;;;5018488;28;20025;-73
2021/07/27 11:20:39;;;;;;;3.65;3.35;;;27.30;97.10;;;;;;5021407;28;20022;-73
2021/07/27 11:23:18;;;;;;;4.35;3.40;;;27.70;96.50;;;;;;4997614;28;20132;-73
2021/07/27 11:25:52;;;;;;;7.30;3.83;;;27.70;97.00;;;;;;5015747;28;20119;-72
2021/07/27 11:28:18;;;;;;;4.28;3.35;;;28.60;94.80;;;;;;5015290;28;20026;-73
2021/07/27 11:30:44;;;;;;;5.97;2.97;;;28.10;95.70;;;;;;5027172;28;20493;-74
2021/07/27 11:33:20;;;;;;;3.13;2.83;;;27.90;95.40;;;;;;5034724;28;20385;-73
2021/07/27 11:35:53;;;;;;;4.82;3.10;;;27.90;93.30;;;;;;5034409;28;20036;-73
2021/07/27 11:38:22;;;;;;;2.97;2.78;;;28.00;93.20;;;;;;5032873;28;20092;-73
2021/07/27 11:41:23;;;;;;;3.85;3.55;;;27.90;93.10;;;;;;5030945;28;20076;-72
2021/07/27 11:43:49;;;;;;;3.42;2.67;;;28.20;94.00;;;;;;4994804;28;20041;-74
2021/07/27 11:46:19;;;;;;;3.38;3.08;;;27.70;93.50;;;;;;5005352;28;20037;-72
2021/07/27 11:48:55;;;;;;;7.50;3.20;;;27.40;94.10;;;;;;5020920;28;20033;-72
2021/07/27 11:51:33;;;;;;;12.20;3.08;;;27.50;93.90;;;;;;5028064;28;20026;-72
2021/07/27 11:53:59;;;;;;;3.53;2.97;;;27.30;92.50;;;;;;5019262;28;20053;-72
2021/07/27 11:56:26;;;;;;;3.50;2.90;;;27.20;92.70;;;;;;5003453;28;20037;-71
2021/07/27 11:59:02;;;;;;;4.20;2.67;;;27.20;92.70;;;;;;5014736;28;20026;-71
2021/07/27 12:01:47;;;;;;;3.38;2.80;;;27.30;93.70;;;;;;5031462;28;20044;-73
2021/07/27 12:04:13;;;;;;;11.07;3.10;;;27.30;92.90;;;;;;5017881;28;20618;-72
2021/07/27 12:06:46;;;;;;;6.75;2.85;;;27.10;93.10;;;;;;5034341;28;20025;-72
2021/07/27 12:09:12;;;;;;;4.32;2.90;;;27.00;93.50;;;;;;5035340;28;20037;-72
2021/07/27 12:11:38;;;;;;;5.72;3.05;;;27.20;93.70;;;;;;5034719;28;20523;-71
2021/07/27 12:14:03;;;;;;;4.18;3.60;;;27.20;93.50;;;;;;5033276;28;20033;-72
2021/07/27 12:16:32;;;;;;;6.18;3.30;;;27.20;93.70;;;;;;5015219;28;20084;-73
2021/07/27 12:18:57;;;;;;;10.52;2.83;;;27.20;93.50;;;;;;5015287;28;20033;-72
2021/07/27 12:21:23;;;;;;;3.80;2.80;;;27.50;93.90;;;;;;5015528;28;20040;-71
2021/07/27 12:23:49;;;;;;;3.00;2.60;;;27.60;93.40;;;;;;5023110;28;20050;-73
2021/07/27 12:26:15;;;;;;;19.75;4.10;;;28.20;92.00;;;;;;5014315;28;20034;-72
2021/07/27 12:28:40;;;;;;;5.05;2.67;;;28.50;91.80;;;;;;5028412;28;20029;-73
2021/07/27 12:31:06;;;;;;;6.53;3.25;;;28.40;91.70;;;;;;5014677;28;20033;-73
2021/07/27 12:33:32;;;;;;;6.57;3.03;;;28.20;92.20;;;;;;5014648;28;20040;-73
2021/07/27 12:36:01;;;;;;;4.13;3.08;;;28.80;91.80;;;;;;5022105;28;20150;-73
2021/07/27 12:38:27;;;;;;;4.32;2.60;;;28.70;92.00;;;;;;5019269;28;20026;-72
2021/07/27 12:40:53;;;;;;;3.13;2.83;;;28.60;91.60;;;;;;5014127;28;20440;-73
2021/07/27 12:43:19;;;;;;;5.63;2.90;;;28.10;92.10;;;;;;5033364;28;20025;-73
2021/07/27 12:45:44;;;;;;;3.72;2.53;;;27.90;92.40;;;;;;5026166;28;20018;-73
2021/07/27 12:48:11;;;;;;;4.47;2.78;;;28.00;92.70;;;;;;5018014;28;20036;-73
2021/07/27 12:50:36;;;;;;;3.55;2.55;;;28.20;92.40;;;;;;5031014;28;20021;-73
2021/07/27 12:53:02;;;;;;;2.90;2.60;;;28.10;91.70;;;;;;5029380;28;20057;-73
2021/07/27 12:55:27;;;;;;;2.67;2.47;;;27.80;91.10;;;;;;4997406;28;20500;-73
2021/07/27 12:57:53;;;;;;;8.05;2.63;;;27.80;91.50;;;;;;5021826;28;20026;-73
2021/07/27 13:00:19;;;;;;;3.90;2.35;;;27.90;91.30;;;;;;5024890;28;20057;-73
2021/07/27 13:02:44;;;;;;;4.18;2.53;;;28.20;90.90;;;;;;5013812;28;20022;-72
2021/07/27 13:05:11;;;;;;;2.50;2.20;;;28.40;90.90;;;;;;5013489;28;20033;-73
2021/07/27 13:07:36;;;;;;;2.78;2.58;;;28.50;90.20;;;;;;5013509;28;20044;-73
2021/07/27 13:10:05;;;;;;;3.03;2.53;;;28.20;90.20;;;;;;5013626;28;20018;-73
2021/07/27 13:12:31;;;;;;;2.40;2.20;;;27.90;90.50;;;;;;5013260;28;20025;-73
2021/07/27 13:14:57;;;;;;;3.45;2.53;;;27.80;90.60;;;;;;5021367;28;20544;-73
2021/07/27 13:17:26;;;;;;;3.35;2.33;;;27.50;90.90;;;;;;5014100;28;20389;-73